sensor_id;sensor_type;location;lat;lon;timestamp;P1;durP1;ratioP1;P2;durP2;ratioP2
15110;SDS011;7656;51.954;7.998;2024-03-23T00:52:51;4.70;;;2.07;;
15110;SDS011;7656;51.954;7.998;2024-03-23T00:57:13;8.77;;;2.50;;
15110;SDS011;7656;51.954;7.998;2024-03-23T01:01:35;7.80;;;2.97;;
15110;SDS011;7656;51.954;7.998;2024-03-23T01:06:00;5.33;;;1.73;;
15110;SDS011;7656;51.954;7.998;2024-03-23T01:10:21;6.43;;;2.07;;
15110;SDS011;7656;51.954;7.998;2024-03-23T01:14:43;3.70;;;2.23;;
15110;SDS011;7656;51.954;7.998;2024-03-23T01:19:05;6.70;;;2.00;;
15110;SDS011;7656;51.954;7.998;2024-03-23T01:23:27;4.27;;;1.57;;
15110;SDS011;7656;51.954;7.998;2024-03-23T01:27:48;2.67;;;1.67;;
15110;SDS011;7656;51.954;7.998;2024-03-23T01:32:10;6.50;;;1.80;;
15110;SDS011;7656;51.954;7.998;2024-03-23T01:36:31;7.90;;;2.60;;
15110;SDS011;7656;51.954;7.998;2024-03-23T01:40:57;6.90;;;2.00;;
15110;SDS011;7656;51.954;7.998;2024-03-23T01:45:19;5.00;;;1.73;;
15110;SDS011;7656;51.954;7.998;2024-03-23T01:49:40;6.80;;;1.60;;
15110;SDS011;7656;51.954;7.998;2024-03-23T01:54:02;3.77;;;1.57;;
15110;SDS011;7656;51.954;7.998;2024-03-23T01:58:24;2.10;;;1.70;;
15110;SDS011;7656;51.954;7.998;2024-03-23T02:02:45;4.20;;;1.80;;
15110;SDS011;7656;51.954;7.998;2024-03-23T02:07:07;3.47;;;1.50;;
15110;SDS011;7656;51.954;7.998;2024-03-23T02:11:28;2.97;;;1.47;;
15110;SDS011;7656;51.954;7.998;2024-03-23T02:15:50;5.17;;;2.27;;
15110;SDS011;7656;51.954;7.998;2024-03-23T02:20:12;4.80;;;1.47;;
15110;SDS011;7656;51.954;7.998;2024-03-23T02:24:33;5.83;;;2.10;;
15110;SDS011;7656;51.954;7.998;2024-03-23T02:28:55;6.03;;;1.37;;
15110;SDS011;7656;51.954;7.998;2024-03-23T02:33:16;4.87;;;1.60;;
15110;SDS011;7656;51.954;7.998;2024-03-23T02:37:38;7.30;;;1.60;;
15110;SDS011;7656;51.954;7.998;2024-03-23T02:41:59;3.57;;;1.60;;
15110;SDS011;7656;51.954;7.998;2024-03-23T02:46:21;5.10;;;1.60;;
15110;SDS011;7656;51.954;7.998;2024-03-23T02:50:42;1.30;;;1.20;;
15110;SDS011;7656;51.954;7.998;2024-03-23T02:55:04;3.73;;;2.20;;
15110;SDS011;7656;51.954;7.998;2024-03-23T02:59:26;3.57;;;1.60;;
15110;SDS011;7656;51.954;7.998;2024-03-23T03:03:47;5.03;;;2.00;;
15110;SDS011;7656;51.954;7.998;2024-03-23T03:08:09;2.20;;;1.63;;
15110;SDS011;7656;51.954;7.998;2024-03-23T03:12:30;6.97;;;1.83;;
15110;SDS011;7656;51.954;7.998;2024-03-23T03:16:52;5.93;;;1.70;;
15110;SDS011;7656;51.954;7.998;2024-03-23T03:21:13;7.73;;;1.83;;
15110;SDS011;7656;51.954;7.998;2024-03-23T03:25:34;2.37;;;1.50;;
15110;SDS011;7656;51.954;7.998;2024-03-23T03:29:56;4.57;;;2.70;;
15110;SDS011;7656;51.954;7.998;2024-03-23T03:34:18;5.33;;;2.00;;
15110;SDS011;7656;51.954;7.998;2024-03-23T03:38:39;4.30;;;1.50;;
15110;SDS011;7656;51.954;7.998;2024-03-23T03:43:01;5.73;;;1.87;;
15110;SDS011;7656;51.954;7.998;2024-03-23T03:47:22;2.53;;;1.70;;
15110;SDS011;7656;51.954;7.998;2024-03-23T03:51:44;3.47;;;1.40;;
15110;SDS011;7656;51.954;7.998;2024-03-23T03:56:05;3.90;;;1.70;;
15110;SDS011;7656;51.954;7.998;2024-03-23T04:00:27;4.47;;;1.83;;
15110;SDS011;7656;51.954;7.998;2024-03-23T04:04:48;5.70;;;2.20;;
15110;SDS011;7656;51.954;7.998;2024-03-23T04:09:09;6.33;;;1.87;;
15110;SDS011;7656;51.954;7.998;2024-03-23T04:13:30;7.80;;;2.50;;
15110;SDS011;7656;51.954;7.998;2024-03-23T04:17:51;3.87;;;1.70;;
15110;SDS011;7656;51.954;7.998;2024-03-23T04:22:13;4.50;;;2.07;;
15110;SDS011;7656;51.954;7.998;2024-03-23T04:26:40;5.50;;;2.30;;
15110;SDS011;7656;51.954;7.998;2024-03-23T04:31:05;4.87;;;2.37;;
15110;SDS011;7656;51.954;7.998;2024-03-23T04:35:27;6.00;;;2.33;;
15110;SDS011;7656;51.954;7.998;2024-03-23T04:39:48;7.37;;;2.80;;
15110;SDS011;7656;51.954;7.998;2024-03-23T04:44:09;6.97;;;2.77;;
15110;SDS011;7656;51.954;7.998;2024-03-23T04:48:30;7.27;;;2.60;;
15110;SDS011;7656;51.954;7.998;2024-03-23T04:52:51;7.10;;;2.87;;
15110;SDS011;7656;51.954;7.998;2024-03-23T04:57:12;10.13;;;3.20;;
15110;SDS011;7656;51.954;7.998;2024-03-23T05:01:40;5.10;;;2.97;;
15110;SDS011;7656;51.954;7.998;2024-03-23T05:06:03;9.70;;;2.97;;
15110;SDS011;7656;51.954;7.998;2024-03-23T05:10:25;6.33;;;3.20;;
15110;SDS011;7656;51.954;7.998;2024-03-23T05:14:46;13.97;;;4.50;;
15110;SDS011;7656;51.954;7.998;2024-03-23T05:19:07;12.33;;;4.07;;
15110;SDS011;7656;51.954;7.998;2024-03-23T05:23:29;10.07;;;3.00;;
15110;SDS011;7656;51.954;7.998;2024-03-23T05:27:50;6.70;;;3.40;;
15110;SDS011;7656;51.954;7.998;2024-03-23T05:32:11;7.50;;;2.93;;
15110;SDS011;7656;51.954;7.998;2024-03-23T05:36:32;10.23;;;2.80;;
15110;SDS011;7656;51.954;7.998;2024-03-23T05:40:57;11.43;;;3.83;;
15110;SDS011;7656;51.954;7.998;2024-03-23T05:45:19;8.70;;;4.33;;
15110;SDS011;7656;51.954;7.998;2024-03-23T05:49:40;6.30;;;3.30;;
15110;SDS011;7656;51.954;7.998;2024-03-23T05:54:02;5.97;;;3.27;;
15110;SDS011;7656;51.954;7.998;2024-03-23T05:58:23;8.80;;;4.37;;
15110;SDS011;7656;51.954;7.998;2024-03-23T06:02:44;7.20;;;4.00;;
15110;SDS011;7656;51.954;7.998;2024-03-23T06:07:05;16.20;;;5.10;;
15110;SDS011;7656;51.954;7.998;2024-03-23T06:11:34;11.17;;;5.13;;
15110;SDS011;7656;51.954;7.998;2024-03-23T06:15:55;13.33;;;5.00;;
15110;SDS011;7656;51.954;7.998;2024-03-23T06:20:16;8.63;;;4.83;;
15110;SDS011;7656;51.954;7.998;2024-03-23T06:24:38;12.97;;;5.53;;
15110;SDS011;7656;51.954;7.998;2024-03-23T06:28:59;12.27;;;5.13;;
15110;SDS011;7656;51.954;7.998;2024-03-23T06:33:20;12.27;;;5.73;;
15110;SDS011;7656;51.954;7.998;2024-03-23T06:37:41;11.00;;;5.17;;
15110;SDS011;7656;51.954;7.998;2024-03-23T06:42:02;12.80;;;5.73;;
15110;SDS011;7656;51.954;7.998;2024-03-23T06:46:24;11.97;;;5.80;;
15110;SDS011;7656;51.954;7.998;2024-03-23T06:50:45;14.50;;;6.77;;
15110;SDS011;7656;51.954;7.998;2024-03-23T06:55:08;14.60;;;6.80;;
15110;SDS011;7656;51.954;7.998;2024-03-23T06:59:29;11.00;;;5.53;;
15110;SDS011;7656;51.954;7.998;2024-03-23T07:03:50;11.93;;;5.87;;
15110;SDS011;7656;51.954;7.998;2024-03-23T07:08:11;10.97;;;6.33;;
15110;SDS011;7656;51.954;7.998;2024-03-23T07:12:32;13.17;;;6.47;;
15110;SDS011;7656;51.954;7.998;2024-03-23T07:16:53;12.47;;;6.67;;
15110;SDS011;7656;51.954;7.998;2024-03-23T07:21:14;11.90;;;6.10;;
15110;SDS011;7656;51.954;7.998;2024-03-23T07:25:36;13.50;;;6.47;;
15110;SDS011;7656;51.954;7.998;2024-03-23T07:29:57;15.77;;;6.40;;
15110;SDS011;7656;51.954;7.998;2024-03-23T07:34:18;13.00;;;6.90;;
15110;SDS011;7656;51.954;7.998;2024-03-23T07:38:40;16.43;;;7.30;;
15110;SDS011;7656;51.954;7.998;2024-03-23T07:43:02;10.15;;;5.95;;
15110;SDS011;7656;51.954;7.998;2024-03-23T07:47:24;12.77;;;5.57;;
15110;SDS011;7656;51.954;7.998;2024-03-23T07:51:46;7.80;;;5.65;;
15110;SDS011;7656;51.954;7.998;2024-03-23T07:56:08;6.60;;;4.78;;
15110;SDS011;7656;51.954;7.998;2024-03-23T08:00:30;9.45;;;4.82;;
15110;SDS011;7656;51.954;7.998;2024-03-23T08:04:52;6.75;;;4.93;;
15110;SDS011;7656;51.954;7.998;2024-03-23T08:09:13;10.98;;;5.25;;
15110;SDS011;7656;51.954;7.998;2024-03-23T08:13:35;9.48;;;4.53;;
15110;SDS011;7656;51.954;7.998;2024-03-23T08:17:59;8.73;;;4.63;;
15110;SDS011;7656;51.954;7.998;2024-03-23T08:22:21;9.30;;;4.53;;
15110;SDS011;7656;51.954;7.998;2024-03-23T08:26:42;8.73;;;4.40;;
15110;SDS011;7656;51.954;7.998;2024-03-23T08:31:07;9.00;;;3.72;;
15110;SDS011;7656;51.954;7.998;2024-03-23T08:35:29;9.80;;;3.60;;
15110;SDS011;7656;51.954;7.998;2024-03-23T08:39:50;7.53;;;3.53;;
15110;SDS011;7656;51.954;7.998;2024-03-23T08:44:11;7.97;;;3.40;;
15110;SDS011;7656;51.954;7.998;2024-03-23T08:48:34;5.50;;;2.80;;
15110;SDS011;7656;51.954;7.998;2024-03-23T08:52:56;11.13;;;3.33;;
15110;SDS011;7656;51.954;7.998;2024-03-23T08:57:17;6.60;;;3.07;;
15110;SDS011;7656;51.954;7.998;2024-03-23T09:01:38;5.07;;;3.07;;
15110;SDS011;7656;51.954;7.998;2024-03-23T09:06:00;4.60;;;2.50;;
15110;SDS011;7656;51.954;7.998;2024-03-23T09:10:21;5.13;;;2.07;;
15110;SDS011;7656;51.954;7.998;2024-03-23T09:14:42;5.50;;;2.67;;
15110;SDS011;7656;51.954;7.998;2024-03-23T09:19:04;5.10;;;1.87;;
15110;SDS011;7656;51.954;7.998;2024-03-23T09:23:25;3.03;;;1.70;;
15110;SDS011;7656;51.954;7.998;2024-03-23T09:27:46;2.83;;;2.30;;
15110;SDS011;7656;51.954;7.998;2024-03-23T09:32:08;2.57;;;2.17;;
15110;SDS011;7656;51.954;7.998;2024-03-23T09:36:29;6.50;;;2.60;;
15110;SDS011;7656;51.954;7.998;2024-03-23T09:40:52;4.33;;;2.27;;
15110;SDS011;7656;51.954;7.998;2024-03-23T09:45:17;3.80;;;2.70;;
15110;SDS011;7656;51.954;7.998;2024-03-23T09:49:42;5.87;;;2.77;;
15110;SDS011;7656;51.954;7.998;2024-03-23T09:54:03;5.53;;;2.57;;
15110;SDS011;7656;51.954;7.998;2024-03-23T09:58:24;4.80;;;2.50;;
15110;SDS011;7656;51.954;7.998;2024-03-23T10:02:45;4.03;;;2.07;;
15110;SDS011;7656;51.954;7.998;2024-03-23T10:07:17;3.70;;;2.10;;
15110;SDS011;7656;51.954;7.998;2024-03-23T10:11:39;5.13;;;2.30;;
15110;SDS011;7656;51.954;7.998;2024-03-23T10:16:01;4.53;;;2.30;;
15110;SDS011;7656;51.954;7.998;2024-03-23T10:20:23;4.83;;;2.83;;
15110;SDS011;7656;51.954;7.998;2024-03-23T10:24:44;5.63;;;2.20;;
15110;SDS011;7656;51.954;7.998;2024-03-23T10:29:06;6.00;;;2.40;;
15110;SDS011;7656;51.954;7.998;2024-03-23T10:33:32;3.00;;;2.07;;
15110;SDS011;7656;51.954;7.998;2024-03-23T10:37:53;5.30;;;2.10;;
15110;SDS011;7656;51.954;7.998;2024-03-23T10:42:15;4.23;;;2.80;;
15110;SDS011;7656;51.954;7.998;2024-03-23T10:46:37;6.30;;;2.30;;
15110;SDS011;7656;51.954;7.998;2024-03-23T10:50:58;4.43;;;2.47;;
15110;SDS011;7656;51.954;7.998;2024-03-23T10:55:20;7.07;;;2.80;;
15110;SDS011;7656;51.954;7.998;2024-03-23T10:59:44;5.85;;;2.13;;
15110;SDS011;7656;51.954;7.998;2024-03-23T11:04:06;4.70;;;2.25;;
15110;SDS011;7656;51.954;7.998;2024-03-23T11:08:45;2.77;;;2.10;;
15110;SDS011;7656;51.954;7.998;2024-03-23T11:13:21;4.20;;;2.50;;
15110;SDS011;7656;51.954;7.998;2024-03-23T11:18:01;5.30;;;2.47;;
15110;SDS011;7656;51.954;7.998;2024-03-23T11:27:16;5.67;;;2.30;;
15110;SDS011;7656;51.954;7.998;2024-03-23T11:31:38;2.87;;;1.70;;
15110;SDS011;7656;51.954;7.998;2024-03-23T11:35:59;4.10;;;2.07;;
15110;SDS011;7656;51.954;7.998;2024-03-23T11:40:20;4.27;;;2.10;;
15110;SDS011;7656;51.954;7.998;2024-03-23T11:44:42;3.87;;;1.70;;
15110;SDS011;7656;51.954;7.998;2024-03-23T11:49:03;8.87;;;1.90;;
15110;SDS011;7656;51.954;7.998;2024-03-23T11:53:24;0.73;;;0.73;;
15110;SDS011;7656;51.954;7.998;2024-03-23T11:57:49;1.00;;;0.80;;
15110;SDS011;7656;51.954;7.998;2024-03-23T12:02:11;0.47;;;0.47;;
15110;SDS011;7656;51.954;7.998;2024-03-23T12:06:35;0.93;;;0.90;;
15110;SDS011;7656;51.954;7.998;2024-03-23T12:11:13;2.17;;;1.10;;
15110;SDS011;7656;51.954;7.998;2024-03-23T12:15:36;2.33;;;1.20;;
15110;SDS011;7656;51.954;7.998;2024-03-23T12:19:57;1.00;;;0.83;;
15110;SDS011;7656;51.954;7.998;2024-03-23T12:24:18;1.70;;;1.00;;
15110;SDS011;7656;51.954;7.998;2024-03-23T12:28:39;2.37;;;1.17;;
15110;SDS011;7656;51.954;7.998;2024-03-23T12:33:00;2.57;;;1.20;;
15110;SDS011;7656;51.954;7.998;2024-03-23T12:37:22;2.57;;;1.40;;
15110;SDS011;7656;51.954;7.998;2024-03-23T12:41:44;2.50;;;1.80;;
15110;SDS011;7656;51.954;7.998;2024-03-23T12:46:05;1.70;;;1.37;;
15110;SDS011;7656;51.954;7.998;2024-03-23T12:50:26;4.97;;;1.40;;
15110;SDS011;7656;51.954;7.998;2024-03-23T12:54:47;2.43;;;1.43;;
15110;SDS011;7656;51.954;7.998;2024-03-23T12:59:08;2.27;;;1.30;;
15110;SDS011;7656;51.954;7.998;2024-03-23T13:03:29;0.83;;;0.57;;
15110;SDS011;7656;51.954;7.998;2024-03-23T13:07:50;1.40;;;0.73;;
15110;SDS011;7656;51.954;7.998;2024-03-23T13:12:11;0.50;;;0.50;;
15110;SDS011;7656;51.954;7.998;2024-03-23T13:16:32;0.63;;;0.47;;
15110;SDS011;7656;51.954;7.998;2024-03-23T13:20:53;1.30;;;0.93;;
15110;SDS011;7656;51.954;7.998;2024-03-23T13:25:15;1.13;;;0.93;;
15110;SDS011;7656;51.954;7.998;2024-03-23T13:29:36;1.67;;;1.00;;
15110;SDS011;7656;51.954;7.998;2024-03-23T13:34:00;1.30;;;1.00;;
15110;SDS011;7656;51.954;7.998;2024-03-23T13:38:22;1.57;;;1.10;;
15110;SDS011;7656;51.954;7.998;2024-03-23T13:42:43;2.37;;;1.33;;
15110;SDS011;7656;51.954;7.998;2024-03-23T13:47:04;1.93;;;1.30;;
15110;SDS011;7656;51.954;7.998;2024-03-23T13:51:26;2.20;;;1.20;;
15110;SDS011;7656;51.954;7.998;2024-03-23T13:55:47;3.90;;;1.33;;
15110;SDS011;7656;51.954;7.998;2024-03-23T14:00:08;2.67;;;1.40;;
15110;SDS011;7656;51.954;7.998;2024-03-23T14:04:33;3.63;;;1.30;;
15110;SDS011;7656;51.954;7.998;2024-03-23T14:08:54;5.00;;;1.47;;
15110;SDS011;7656;51.954;7.998;2024-03-23T14:13:15;2.27;;;1.40;;
15110;SDS011;7656;51.954;7.998;2024-03-23T14:17:36;3.30;;;1.40;;
15110;SDS011;7656;51.954;7.998;2024-03-23T14:21:57;2.93;;;1.67;;
15110;SDS011;7656;51.954;7.998;2024-03-23T14:26:18;5.90;;;3.33;;
15110;SDS011;7656;51.954;7.998;2024-03-23T14:30:41;2.17;;;1.93;;
15110;SDS011;7656;51.954;7.998;2024-03-23T14:35:02;3.10;;;1.67;;
15110;SDS011;7656;51.954;7.998;2024-03-23T14:39:24;4.40;;;2.00;;
15110;SDS011;7656;51.954;7.998;2024-03-23T14:43:45;2.00;;;1.57;;
15110;SDS011;7656;51.954;7.998;2024-03-23T14:48:08;3.50;;;1.73;;
15110;SDS011;7656;51.954;7.998;2024-03-23T14:52:31;3.07;;;1.20;;
15110;SDS011;7656;51.954;7.998;2024-03-23T14:56:52;1.33;;;1.23;;
15110;SDS011;7656;51.954;7.998;2024-03-23T15:01:13;2.07;;;1.53;;
15110;SDS011;7656;51.954;7.998;2024-03-23T15:05:34;2.67;;;1.07;;
15110;SDS011;7656;51.954;7.998;2024-03-23T15:09:55;2.03;;;1.27;;
15110;SDS011;7656;51.954;7.998;2024-03-23T15:14:16;2.00;;;1.53;;
15110;SDS011;7656;51.954;7.998;2024-03-23T15:18:37;3.57;;;1.20;;
15110;SDS011;7656;51.954;7.998;2024-03-23T15:22:59;5.47;;;1.30;;
15110;SDS011;7656;51.954;7.998;2024-03-23T15:27:21;2.27;;;1.40;;
15110;SDS011;7656;51.954;7.998;2024-03-23T15:31:42;1.80;;;1.47;;
15110;SDS011;7656;51.954;7.998;2024-03-23T15:36:04;2.50;;;1.00;;
15110;SDS011;7656;51.954;7.998;2024-03-23T15:40:26;0.80;;;0.80;;
15110;SDS011;7656;51.954;7.998;2024-03-23T15:44:47;4.37;;;1.40;;
15110;SDS011;7656;51.954;7.998;2024-03-23T15:49:09;2.53;;;1.10;;
15110;SDS011;7656;51.954;7.998;2024-03-23T15:53:30;3.73;;;1.40;;
15110;SDS011;7656;51.954;7.998;2024-03-23T15:57:51;2.87;;;1.40;;
15110;SDS011;7656;51.954;7.998;2024-03-23T16:02:12;2.83;;;1.33;;
15110;SDS011;7656;51.954;7.998;2024-03-23T16:06:33;1.10;;;0.70;;
15110;SDS011;7656;51.954;7.998;2024-03-23T16:10:59;1.53;;;0.90;;
15110;SDS011;7656;51.954;7.998;2024-03-23T16:15:25;1.57;;;0.90;;
15110;SDS011;7656;51.954;7.998;2024-03-23T16:19:46;1.10;;;0.77;;
15110;SDS011;7656;51.954;7.998;2024-03-23T16:24:07;0.93;;;0.90;;
15110;SDS011;7656;51.954;7.998;2024-03-23T16:28:29;2.10;;;1.10;;
15110;SDS011;7656;51.954;7.998;2024-03-23T16:32:51;1.53;;;0.70;;
15110;SDS011;7656;51.954;7.998;2024-03-23T16:37:12;1.80;;;0.90;;
15110;SDS011;7656;51.954;7.998;2024-03-23T16:41:33;1.67;;;1.03;;
15110;SDS011;7656;51.954;7.998;2024-03-23T16:45:58;5.17;;;1.03;;
15110;SDS011;7656;51.954;7.998;2024-03-23T16:50:20;3.73;;;1.50;;
15110;SDS011;7656;51.954;7.998;2024-03-23T16:54:41;2.17;;;0.90;;
15110;SDS011;7656;51.954;7.998;2024-03-23T16:59:03;3.23;;;1.40;;
15110;SDS011;7656;51.954;7.998;2024-03-23T17:03:25;1.77;;;1.00;;
15110;SDS011;7656;51.954;7.998;2024-03-23T17:07:48;1.87;;;1.07;;
15110;SDS011;7656;51.954;7.998;2024-03-23T17:12:09;4.60;;;1.10;;
15110;SDS011;7656;51.954;7.998;2024-03-23T17:16:31;2.93;;;1.10;;
15110;SDS011;7656;51.954;7.998;2024-03-23T17:20:52;1.17;;;0.77;;
15110;SDS011;7656;51.954;7.998;2024-03-23T17:25:13;1.90;;;1.13;;
15110;SDS011;7656;51.954;7.998;2024-03-23T17:29:34;3.37;;;1.03;;
15110;SDS011;7656;51.954;7.998;2024-03-23T17:33:55;2.40;;;1.37;;
15110;SDS011;7656;51.954;7.998;2024-03-23T17:38:16;5.17;;;1.50;;
15110;SDS011;7656;51.954;7.998;2024-03-23T17:42:38;0.80;;;0.70;;
15110;SDS011;7656;51.954;7.998;2024-03-23T17:47:00;0.93;;;0.67;;
15110;SDS011;7656;51.954;7.998;2024-03-23T17:51:21;2.93;;;0.70;;
15110;SDS011;7656;51.954;7.998;2024-03-23T17:55:43;0.80;;;0.60;;
15110;SDS011;7656;51.954;7.998;2024-03-23T18:00:05;2.80;;;0.77;;
15110;SDS011;7656;51.954;7.998;2024-03-23T18:04:31;0.70;;;0.70;;
15110;SDS011;7656;51.954;7.998;2024-03-23T18:08:53;2.43;;;1.00;;
15110;SDS011;7656;51.954;7.998;2024-03-23T18:13:14;3.10;;;1.40;;
15110;SDS011;7656;51.954;7.998;2024-03-23T18:17:35;1.03;;;1.03;;
15110;SDS011;7656;51.954;7.998;2024-03-23T18:21:56;1.00;;;0.70;;
15110;SDS011;7656;51.954;7.998;2024-03-23T18:26:17;1.13;;;0.77;;
15110;SDS011;7656;51.954;7.998;2024-03-23T18:30:38;1.30;;;0.80;;
15110;SDS011;7656;51.954;7.998;2024-03-23T18:34:59;1.23;;;0.70;;
15110;SDS011;7656;51.954;7.998;2024-03-23T18:39:20;0.70;;;0.70;;
15110;SDS011;7656;51.954;7.998;2024-03-23T18:43:41;0.73;;;0.73;;
15110;SDS011;7656;51.954;7.998;2024-03-23T18:48:09;1.60;;;0.63;;
15110;SDS011;7656;51.954;7.998;2024-03-23T18:52:30;2.27;;;0.93;;
15110;SDS011;7656;51.954;7.998;2024-03-23T18:56:52;1.90;;;0.70;;
15110;SDS011;7656;51.954;7.998;2024-03-23T19:01:13;0.90;;;0.90;;
15110;SDS011;7656;51.954;7.998;2024-03-23T19:05:34;2.30;;;0.90;;
15110;SDS011;7656;51.954;7.998;2024-03-23T19:09:55;2.23;;;1.00;;
15110;SDS011;7656;51.954;7.998;2024-03-23T19:14:16;1.53;;;1.00;;
15110;SDS011;7656;51.954;7.998;2024-03-23T19:18:37;1.13;;;0.90;;
15110;SDS011;7656;51.954;7.998;2024-03-23T19:22:58;2.07;;;1.20;;
15110;SDS011;7656;51.954;7.998;2024-03-23T19:27:20;1.40;;;1.30;;
15110;SDS011;7656;51.954;7.998;2024-03-23T19:31:41;1.33;;;1.20;;
15110;SDS011;7656;51.954;7.998;2024-03-23T19:36:02;1.13;;;1.00;;
15110;SDS011;7656;51.954;7.998;2024-03-23T19:40:23;1.30;;;1.20;;
15110;SDS011;7656;51.954;7.998;2024-03-23T19:44:44;1.20;;;0.90;;
15110;SDS011;7656;51.954;7.998;2024-03-23T19:49:05;1.13;;;0.90;;
15110;SDS011;7656;51.954;7.998;2024-03-23T19:53:26;2.00;;;1.67;;
15110;SDS011;7656;51.954;7.998;2024-03-23T19:57:48;2.23;;;1.10;;
15110;SDS011;7656;51.954;7.998;2024-03-23T20:02:09;2.20;;;1.30;;
15110;SDS011;7656;51.954;7.998;2024-03-23T20:06:30;4.27;;;1.50;;
15110;SDS011;7656;51.954;7.998;2024-03-23T20:10:51;1.63;;;1.00;;
15110;SDS011;7656;51.954;7.998;2024-03-23T20:15:12;2.13;;;1.40;;
15110;SDS011;7656;51.954;7.998;2024-03-23T20:19:33;1.90;;;1.60;;
15110;SDS011;7656;51.954;7.998;2024-03-23T20:23:54;1.47;;;1.03;;
15110;SDS011;7656;51.954;7.998;2024-03-23T20:28:15;3.40;;;1.50;;
15110;SDS011;7656;51.954;7.998;2024-03-23T20:32:36;1.00;;;1.00;;
15110;SDS011;7656;51.954;7.998;2024-03-23T20:36:57;2.40;;;1.10;;
15110;SDS011;7656;51.954;7.998;2024-03-23T20:41:18;1.37;;;1.27;;
15110;SDS011;7656;51.954;7.998;2024-03-23T20:45:40;2.50;;;1.60;;
15110;SDS011;7656;51.954;7.998;2024-03-23T20:50:01;2.57;;;1.50;;
15110;SDS011;7656;51.954;7.998;2024-03-23T20:54:24;4.57;;;1.80;;
15110;SDS011;7656;51.954;7.998;2024-03-23T20:58:45;4.63;;;2.10;;
15110;SDS011;7656;51.954;7.998;2024-03-23T21:03:06;1.87;;;1.70;;
15110;SDS011;7656;51.954;7.998;2024-03-23T21:07:27;2.53;;;1.90;;
15110;SDS011;7656;51.954;7.998;2024-03-23T21:11:49;4.53;;;2.63;;
15110;SDS011;7656;51.954;7.998;2024-03-23T21:16:10;2.87;;;1.83;;
15110;SDS011;7656;51.954;7.998;2024-03-23T21:20:31;4.23;;;2.17;;
15110;SDS011;7656;51.954;7.998;2024-03-23T21:24:52;3.27;;;2.60;;
15110;SDS011;7656;51.954;7.998;2024-03-23T21:29:13;4.07;;;2.03;;
15110;SDS011;7656;51.954;7.998;2024-03-23T21:33:34;2.83;;;1.80;;
15110;SDS011;7656;51.954;7.998;2024-03-23T21:37:57;4.53;;;2.00;;
15110;SDS011;7656;51.954;7.998;2024-03-23T21:42:18;1.60;;;1.50;;
15110;SDS011;7656;51.954;7.998;2024-03-23T21:46:39;4.20;;;1.57;;
15110;SDS011;7656;51.954;7.998;2024-03-23T21:51:00;2.13;;;1.63;;
15110;SDS011;7656;51.954;7.998;2024-03-23T21:55:23;1.90;;;1.40;;
15110;SDS011;7656;51.954;7.998;2024-03-23T21:59:44;4.37;;;1.73;;
15110;SDS011;7656;51.954;7.998;2024-03-23T22:04:08;3.97;;;2.00;;
15110;SDS011;7656;51.954;7.998;2024-03-23T22:08:29;3.17;;;2.33;;
15110;SDS011;7656;51.954;7.998;2024-03-23T22:12:51;2.53;;;2.30;;
15110;SDS011;7656;51.954;7.998;2024-03-23T22:17:13;3.97;;;2.20;;
15110;SDS011;7656;51.954;7.998;2024-03-23T22:21:34;5.60;;;2.47;;
15110;SDS011;7656;51.954;7.998;2024-03-23T22:25:55;5.80;;;2.67;;
15110;SDS011;7656;51.954;7.998;2024-03-23T22:30:19;4.47;;;2.30;;
15110;SDS011;7656;51.954;7.998;2024-03-23T22:34:41;2.50;;;2.30;;
15110;SDS011;7656;51.954;7.998;2024-03-23T22:39:02;5.30;;;2.20;;
15110;SDS011;7656;51.954;7.998;2024-03-23T22:43:25;4.90;;;2.33;;
15110;SDS011;7656;51.954;7.998;2024-03-23T22:47:46;5.03;;;2.50;;
15110;SDS011;7656;51.954;7.998;2024-03-23T22:52:07;2.70;;;2.40;;
15110;SDS011;7656;51.954;7.998;2024-03-23T22:56:28;4.07;;;2.50;;
15110;SDS011;7656;51.954;7.998;2024-03-23T23:00:50;3.80;;;2.63;;
15110;SDS011;7656;51.954;7.998;2024-03-23T23:05:14;4.33;;;2.80;;
15110;SDS011;7656;51.954;7.998;2024-03-23T23:09:35;5.87;;;3.20;;
15110;SDS011;7656;51.954;7.998;2024-03-23T23:13:56;7.00;;;3.63;;
15110;SDS011;7656;51.954;7.998;2024-03-23T23:18:18;5.53;;;4.10;;
15110;SDS011;7656;51.954;7.998;2024-03-23T23:22:39;5.70;;;4.13;;
15110;SDS011;7656;51.954;7.998;2024-03-23T23:27:00;6.73;;;4.93;;
15110;SDS011;7656;51.954;7.998;2024-03-23T23:31:21;8.77;;;4.83;;
15110;SDS011;7656;51.954;7.998;2024-03-23T23:35:42;8.43;;;4.93;;
15110;SDS011;7656;51.954;7.998;2024-03-23T23:40:03;9.13;;;5.00;;
15110;SDS011;7656;51.954;7.998;2024-03-23T23:44:25;6.47;;;4.77;;
15110;SDS011;7656;51.954;7.998;2024-03-23T23:48:46;8.67;;;5.10;;
15110;SDS011;7656;51.954;7.998;2024-03-23T23:53:07;5.87;;;4.47;;
15110;SDS011;7656;51.954;7.998;2024-03-23T23:57:28;7.17;;;5.00;;
